Time;durP1;ratioP1;P1;durP2;ratioP2;P2;SDS_P1;SDS_P2;PMS_P1;PMS_P2;Temp;Humidity;BMP_temperature;BMP_pressure;BME280_temperature;BME280_humidity;BME280_pressure;Samples;Min_cycle;Max_cycle;Signal;HPM_P1;HPM_P2
2021/08/04 00:07:36;;;;;;;4.2;2.3;;;;;;;14.88;100;98346.16;;;;
2021/08/04 00:17:36;;;;;;;3.4;1.8;;;;;;;14.73;100;98341.41;;;;
2021/08/04 00:27:35;;;;;;;3.8;1.9;;;;;;;14.52;100;98346.95;;;;
2021/08/04 00:37:34;;;;;;;4.6;2;;;;;;;14.66;100;98323;;;;
2021/08/04 00:47:34;;;;;;;5.2;2.3;;;;;;;14.81;100;98333.17;;;;
2021/08/04 00:57:33;;;;;;;4.5;2.4;;;;;;;14.94;100;98333.94;;;;
2021/08/04 01:07:32;;;;;;;7;2.2;;;;;;;14.65;100;98321.41;;;;
2021/08/04 01:17:32;;;;;;;12.2;3.3;;;;;;;14.69;100;98307.95;;;;
2021/08/04 01:27:31;;;;;;;4.6;2.5;;;;;;;14.65;100;98297;;;;
2021/08/04 01:37:31;;;;;;;4.5;2.1;;;;;;;14.67;100;98289.33;;;;
2021/08/04 01:47:30;;;;;;;3.8;2.2;;;;;;;14.76;100;98294.61;;;;
2021/08/04 01:57:29;;;;;;;4.7;2.4;;;;;;;14.82;100;98293.27;;;;
2021/08/04 02:17:28;;;;;;;6.7;3.1;;;;;;;14.57;100;98341.33;;;;
2021/08/04 02:27:28;;;;;;;6.8;3;;;;;;;14.64;100;98340.75;;;;
2021/08/04 02:37:28;;;;;;;4.2;2.1;;;;;;;14.7;100;98340.19;;;;
2021/08/04 02:47:26;;;;;;;5.8;2.6;;;;;;;14.65;100;98343.11;;;;
2021/08/04 02:57:26;;;;;;;5;2.1;;;;;;;14.62;100;98351.93;;;;
2021/08/04 03:07:25;;;;;;;7.1;4.6;;;;;;;14.71;100;98347.2;;;;
2021/08/04 03:17:25;;;;;;;5.2;3.4;;;;;;;14.87;100;98344.56;;;;
2021/08/04 03:27:24;;;;;;;4.9;3.5;;;;;;;15.04;100;98347.03;;;;
2021/08/04 03:37:24;;;;;;;7.6;4.1;;;;;;;15.13;100;98344.2;;;;
2021/08/04 03:47:23;;;;;;;6.8;4.8;;;;;;;15.23;100;98360.01;;;;
2021/08/04 03:57:23;;;;;;;6.9;4.2;;;;;;;15.36;100;98348.77;;;;
2021/08/04 04:07:22;;;;;;;7.4;4.1;;;;;;;15.48;100;98347.95;;;;
2021/08/04 04:17:22;;;;;;;6.3;3.3;;;;;;;15.59;100;98349.05;;;;
2021/08/04 04:27:21;;;;;;;5;2.8;;;;;;;15.79;100;98353.48;;;;
2021/08/04 04:37:21;;;;;;;7.4;3.1;;;;;;;16.15;100;98368.02;;;;
2021/08/04 04:47:21;;;;;;;3.9;2.5;;;;;;;16.37;100;98373.67;;;;
2021/08/04 04:57:21;;;;;;;5.1;3.2;;;;;;;16.4;100;98377.61;;;;
2021/08/04 05:07:20;;;;;;;5;3.2;;;;;;;16.73;100;98375.34;;;;
2021/08/04 05:17:19;;;;;;;4.9;3.2;;;;;;;17.1;100;98379.34;;;;
2021/08/04 05:27:19;;;;;;;6.9;3.7;;;;;;;17.35;100;98406.34;;;;
2021/08/04 05:37:19;;;;;;;6.7;4.3;;;;;;;17.35;100;98395.45;;;;
2021/08/04 05:47:19;;;;;;;5.7;3.9;;;;;;;18.01;100;98376.19;;;;
2021/08/04 05:57:19;;;;;;;7.5;4.2;;;;;;;18.19;100;98388.2;;;;
2021/08/04 06:07:19;;;;;;;6.3;4.1;;;;;;;18.61;100;98385.45;;;;
2021/08/04 06:17:18;;;;;;;8.6;4.5;;;;;;;18.9;100;98382.03;;;;
2021/08/04 06:27:19;;;;;;;7.4;3.4;;;;;;;19.46;100;98395.75;;;;
2021/08/04 06:37:19;;;;;;;7;3.9;;;;;;;20.18;100;98402.84;;;;
2021/08/04 06:47:19;;;;;;;6.1;3.4;;;;;;;20.02;100;98392.14;;;;
2021/08/04 06:57:19;;;;;;;4.1;2.4;;;;;;;20.23;100;98391.58;;;;
2021/08/04 07:07:19;;;;;;;5.4;2.7;;;;;;;20.65;100;98396.7;;;;
2021/08/04 07:17:19;;;;;;;5.5;2.1;;;;;;;20.83;100;98384.7;;;;
2021/08/04 07:27:20;;;;;;;3.9;2.3;;;;;;;20.41;100;98387.86;;;;
2021/08/04 07:37:22;;;;;;;4.4;1.8;;;;;;;20.16;100;98397.77;;;;
2021/08/04 07:47:22;;;;;;;4.1;2.3;;;;;;;20.2;100;98401.3;;;;
2021/08/04 07:57:22;;;;;;;8.2;3;;;;;;;20.6;100;98397.81;;;;
2021/08/04 08:07:22;;;;;;;4;1.7;;;;;;;20.55;100;98395.41;;;;
2021/08/04 08:17:22;;;;;;;4.9;2.4;;;;;;;21.04;100;98389.55;;;;
2021/08/04 08:27:22;;;;;;;4.9;2;;;;;;;20.94;100;98391.05;;;;
2021/08/04 08:37:22;;;;;;;7.9;3.2;;;;;;;21.24;100;98401.08;;;;
2021/08/04 08:47:22;;;;;;;7.1;4;;;;;;;21.93;100;98388.91;;;;
2021/08/04 08:57:23;;;;;;;10.6;3.4;;;;;;;22.68;100;98383.56;;;;
2021/08/04 09:07:30;;;;;;;5.3;2.5;;;;;;;23.21;100;98380.78;;;;
2021/08/04 09:17:24;;;;;;;5;1.9;;;;;;;23.91;100;98375.08;;;;
2021/08/04 09:27:55;;;;;;;3.6;1.9;;;;;;;23.99;100;98384.85;;;;
2021/08/04 09:37:25;;;;;;;3.4;1.7;;;;;;;24.08;100;98375.38;;;;
2021/08/04 09:47:26;;;;;;;3.9;1.6;;;;;;;24.74;100;98379.68;;;;
2021/08/04 09:57:39;;;;;;;3.3;1.4;;;;;;;24.93;100;98376.38;;;;
2021/08/04 10:07:28;;;;;;;3.8;2;;;;;;;25.41;100;98365.25;;;;
2021/08/04 10:17:29;;;;;;;3.2;1.4;;;;;;;24.73;100;98364.32;;;;
2021/08/04 10:27:30;;;;;;;3;1.7;;;;;;;24.5;100;98370.39;;;;
2021/08/04 10:37:32;;;;;;;4.3;1.5;;;;;;;24.75;100;98374.95;;;;
2021/08/04 10:47:31;;;;;;;3.3;1.4;;;;;;;24.82;98.79395;98377.63;;;;
2021/08/04 10:57:35;;;;;;;5.3;1.9;;;;;;;24.41;100;98369.28;;;;
2021/08/04 17:58:01;;;;;;;4.9;2.3;;;;;;;21.21;100;98300.44;;;;
2021/08/04 18:08:01;;;;;;;6.7;3.1;;;;;;;21.15;100;98296.47;;;;
2021/08/04 18:18:02;;;;;;;5.2;2.6;;;;;;;20.87;100;98300.59;;;;
2021/08/04 18:28:02;;;;;;;6.6;3.3;;;;;;;20.54;100;98306.24;;;;
2021/08/04 18:38:02;;;;;;;7.9;6.6;;;;;;;20.38;100;98316.66;;;;
2021/08/04 18:48:02;;;;;;;5.6;3.6;;;;;;;20.31;100;98325.59;;;;
2021/08/04 18:58:03;;;;;;;4.7;3;;;;;;;20.12;100;98327.73;;;;
2021/08/04 19:08:03;;;;;;;8.7;4.9;;;;;;;19.81;100;98323.52;;;;
2021/08/04 19:18:03;;;;;;;9.9;4.7;;;;;;;19.74;100;98318.76;;;;
2021/08/04 19:28:03;;;;;;;7.7;5.2;;;;;;;19.69;100;98321.81;;;;
2021/08/04 19:38:03;;;;;;;5.6;3.7;;;;;;;19.62;100;98327.2;;;;
2021/08/04 19:48:03;;;;;;;9.8;4.2;;;;;;;19.36;100;98321.79;;;;
2021/08/04 19:58:03;;;;;;;7.4;5.2;;;;;;;19.23;100;98320.45;;;;
2021/08/04 20:08:03;;;;;;;5.7;3.4;;;;;;;18.98;100;98309.19;;;;
2021/08/04 20:18:02;;;;;;;8.2;4.2;;;;;;;18.9;100;98304.77;;;;
2021/08/04 20:28:02;;;;;;;9.7;5;;;;;;;18.85;100;98307.81;;;;
2021/08/04 20:38:02;;;;;;;9.6;5.2;;;;;;;18.75;100;98309.23;;;;
2021/08/04 20:48:02;;;;;;;9.6;5.8;;;;;;;18.69;100;98307.19;;;;
2021/08/04 20:58:04;;;;;;;8.8;4.9;;;;;;;18.68;100;98298.2;;;;
2021/08/04 21:08:02;;;;;;;6.1;4.1;;;;;;;18.36;100;98283.27;;;;
2021/08/04 21:18:02;;;;;;;5.2;3.8;;;;;;;18.43;100;98286.11;;;;
2021/08/04 21:28:02;;;;;;;5.3;3.3;;;;;;;18.36;100;98277.81;;;;
2021/08/04 21:38:04;;;;;;;7.6;4.6;;;;;;;18.23;100;98271.75;;;;
2021/08/04 21:48:01;;;;;;;5.8;3.6;;;;;;;18.2;100;98275.2;;;;
2021/08/04 21:58:01;;;;;;;7.2;4.4;;;;;;;18.17;100;98262.3;;;;
2021/08/04 22:08:01;;;;;;;5.9;3.3;;;;;;;18.13;100;98263.39;;;;
2021/08/04 22:18:01;;;;;;;7.7;4.8;;;;;;;18.09;100;98250.48;;;;
2021/08/04 22:28:01;;;;;;;7.2;4.8;;;;;;;18.01;100;98235.14;;;;
2021/08/04 22:38:00;;;;;;;7.4;4.2;;;;;;;18.13;100;98231.45;;;;
2021/08/04 22:48:00;;;;;;;6.5;3.6;;;;;;;18.14;100;98221.33;;;;
2021/08/04 22:58:00;;;;;;;9.4;5.2;;;;;;;18.07;100;98209.16;;;;
2021/08/04 23:08:00;;;;;;;8.9;4.8;;;;;;;18.03;100;98193.89;;;;
2021/08/04 23:18:00;;;;;;;8;4.2;;;;;;;17.96;100;98180.14;;;;
2021/08/04 23:28:00;;;;;;;6.8;4.2;;;;;;;17.88;100;98175.72;;;;
2021/08/04 23:37:59;;;;;;;9.5;5.1;;;;;;;17.85;100;98146.46;;;;
2021/08/04 23:47:59;;;;;;;7.8;3.9;;;;;;;17.77;100;98152.97;;;;
2021/08/04 23:57:59;;;;;;;6.8;4.7;;;;;;;17.84;100;98132.04;;;;
